Archer, Idaho
Current Conditions -  °F | °C
As of 8:53 AM on Saturday 25 Oct 2014 (Local Time) from KRXE Reporting Station
Clear Clear  
Wind Chill:   Ceiling: Unl
Heat Index:   Visibility: 10mi
Dew Point: -2°   Wind: 7mph
Humidity: 68%   Direction: 70°ENE
Pressure: 30.06"   Gusts: NA
Location:  43.7568°N, 111.624°W
Report Text: KRXE 251453Z AUTO 07006KT 10SM CLR 03/M02 A3006 RMK AO2 SLP170 T00331022 51001
Loading
Personal Weather Stations






























Interactive Weather Map
Tropical Storm Tracking
New forecast layout! Learn more

10-Day Weather Forecast

Advertisements
Track Severe Weather on mobile